Accident: ACT B744 at Dammam and Jeddah on Feb 1st 2020, tail strike on departure

An ACT Airlines (aka MyCargo Airlines) Boeing 747-400 freighter on behalf of Saudia Arabian Airlines, registration TC-MCT performing flight SV-919 from Dammam (Saudi Arabia) to Zaragoza,SP (Spain), struck its tail onto the runway during departure from Dammam’s runway 16R at 02:43L (23:43Z). The crew stopped the climb initially at 7000 feet, later climbed to FL100 and subsequently decided to divert to Jeddah (Saudi Arabia). The aircraft climbed to FL150 and further to FL180 for the flight to Jeddah and landed in Jeddah without further incident about 2:50 hours after departure.

The aircraft is still on the ground in Jeddah about 21.5 hours after landing.

Metars Dammam:
OEDF 010200Z 14004KT 2000 BR NSC 12/09 Q1015 NOSIG=
OEDF 010100Z 13006KT 3000 BR NSC 12/09 Q1015 NOSIG=
OEDF 010000Z 13005KT 3000 BR NSC 11/08 Q1015 NOSIG=
OEDF 312300Z 15005KT 3000 BR NSC 11/08 Q1015 NOSIG=
OEDF 312200Z 17004KT 4000 BR NSC 11/08 Q1016 TEMPO 2000=
OEDF 312100Z VRB03KT 6000 NSC 12/08 Q1016 NOSIG=
OEDF 312000Z 00000KT 8000 NSC 13/08 Q1017 NOSIG=